Terminal Aerodrome Forecast
Issued by NWS

Home | Current Version | Previous Version | Text Only | Print | Product List | Glossary On
Versions: 1 2 3 4 5 6 7 8 9 10 11 12 13 14 15 16
000
FTUS41 KPHI 242300
TAFPNE
TAF
KPNE 242332Z 2500/2524 34008KT P6SM SCT250
     FM250400 VRB03KT P6SM BKN250
     FM251400 15008KT P6SM BKN250
     FM252200 15010KT P6SM -SHRA BKN050 OVC100=

USA.gov is the U.S. government's official web portal to all federal, state and local government web resources and services.